Weather History for Franklin, NC

Change the Weather History Date:

Thursday, February 21, 2013

  Actual Average (KTOC) Record (KTOC)
Temperature  
Mean Temperature 40 °F -  
Max Temperature 62 °F 58 °F 66 °F (2014)
Min Temperature 20 °F 36 °F 48 °F (2014)
Degree Days  
Heating Degree Days 24    
Moisture  
Dew Point 18 °F    
Average Humidity 54    
Maximum Humidity 91    
Minimum Humidity 7    
Precipitation  
Precipitation 0.44 in - - ()
Sea Level Pressure  
Sea Level Pressure 30.10 in    
Wind  
Wind Speed 1 mph (ESE)    
Max Wind Speed 7 mph    
Max Gust Speed -    
Visibility 9 miles    
Events Rain    
Averages and records for this station are not official NWS values.
T = Trace of Precipitation, MM = Missing Value Source: NWS Daily Summary

Daily Weather History Graph

Daily Weather History Graph

Search for Another Location

Airport:

Trip Planner

Search our weather history database for the weather conditions in past years. The results will help you decide how hot, cold, wet, or windy it might be!

Date:

Astronomy

Feb. 21, 2013 Rise Set
Actual Time 7:12 AM EST 6:22 PM EST
Civil Twilight 6:47 AM EST 6:47 PM EST
Nautical Twilight 6:17 AM EST 7:17 PM EST
Astronomical Twilight 5:48 AM EST 7:46 PM EST
Moon 2:41 PM EST (2/21) 4:10 AM EST (2/21)
Length of Visible Light 12h 00m
Length of Day
11h 09m
Waxing Gibbous, 83% of the Moon is Illuminated
Feb 21
Waxing Gibbous
Feb 25
Full
Mar 4
Last Quarter
Mar 11
New
Mar 19
First Quarter

Hourly Weather History & Observations

Time (EST) Temp. Windchill Dew Point Humidity Pressure Visibility Wind Dir Wind Speed Gust Speed Precip Events Conditions
12:15 AM 22.6 °F - 16.7 °F 78% 30.11 in 10.0 mi Calm Calm - N/A   Clear
12:35 AM 22.3 °F - 15.8 °F 76% 30.11 in 10.0 mi Calm Calm - N/A   Clear
12:55 AM 22.1 °F - 16.3 °F 79% 30.11 in 10.0 mi Calm Calm - N/A   Clear
1:15 AM 22.6 °F - 16.5 °F 77% 30.11 in 10.0 mi Calm Calm - N/A   Clear
1:35 AM 23.7 °F - 17.4 °F 77% 30.13 in 10.0 mi Calm Calm - N/A   Clear
1:55 AM 24.4 °F - 18.5 °F 78% 30.13 in 10.0 mi Calm Calm - N/A   Clear
2:15 AM 24.8 °F - 18.9 °F 78% 30.12 in 10.0 mi Calm Calm - N/A   Clear
2:35 AM 24.3 °F - 17.6 °F 76% 30.12 in 10.0 mi Calm Calm - N/A   Clear
2:55 AM 23.9 °F - 19.0 °F 82% 30.12 in 10.0 mi Calm Calm - N/A   Clear
3:15 AM 22.3 °F - 16.9 °F 80% 30.12 in 10.0 mi Calm Calm - N/A   Clear
3:35 AM 22.8 °F - 18.7 °F 84% 30.12 in 10.0 mi Calm Calm - N/A   Clear
3:55 AM 22.5 °F - 17.8 °F 82% 30.12 in 10.0 mi Calm Calm - N/A   Clear
4:15 AM 21.6 °F - 17.2 °F 83% 30.12 in 10.0 mi Calm Calm - N/A   Clear
4:35 AM 21.0 °F - 17.2 °F 85% 30.13 in 10.0 mi Calm Calm - N/A   Clear
4:55 AM 21.7 °F - 18.0 °F 85% 30.14 in 10.0 mi Calm Calm - N/A   Clear
5:15 AM 21.2 °F - 16.9 °F 83% 30.13 in 10.0 mi Calm Calm - N/A   Clear
5:35 AM 21.2 °F - 17.6 °F 86% 30.14 in 10.0 mi Calm Calm - N/A   Clear
5:55 AM 21.0 °F - 16.5 °F 83% 30.14 in 10.0 mi Calm Calm - N/A   Clear
6:15 AM 20.3 °F - 16.5 °F 85% 30.14 in 10.0 mi Calm Calm - N/A   Clear
6:55 AM 21.0 °F - 17.1 °F 85% 30.16 in 10.0 mi Calm Calm - N/A   Clear
7:15 AM 20.8 °F - 17.6 °F 87% 30.16 in 10.0 mi Calm Calm - N/A   Clear
7:35 AM 20.7 °F - 16.7 °F 85% 30.17 in 10.0 mi Calm Calm - N/A   Clear
7:55 AM 21.4 °F - 18.0 °F 87% 30.18 in 10.0 mi Calm Calm - N/A   Clear
8:15 AM 24.4 °F - 19.0 °F 80% 30.18 in 10.0 mi Calm Calm - N/A   Clear
8:35 AM 27.7 °F - 19.2 °F 71% 30.18 in 10.0 mi Calm Calm - N/A   Clear
8:55 AM 28.9 °F - 18.7 °F 66% 30.19 in 10.0 mi Calm Calm - N/A   Clear
9:15 AM 31.1 °F - 16.5 °F 55% 30.18 in 10.0 mi Calm Calm - N/A   Clear
9:35 AM 34.0 °F - 14.9 °F 46% 30.18 in 10.0 mi Calm Calm - N/A   Clear
9:55 AM 36.3 °F - 13.6 °F 39% 30.18 in 10.0 mi Calm Calm - N/A   Clear
10:15 AM 38.7 °F - 14.9 °F 38% 30.18 in 10.0 mi Calm Calm - N/A   Clear
10:35 AM 40.5 °F 38.4 °F 13.3 °F 33% 30.17 in 10.0 mi NE 3.5 mph - N/A   Clear
10:55 AM 43.0 °F - 14.9 °F 32% 30.16 in 10.0 mi Calm Calm - N/A   Clear
11:15 AM 45.1 °F - 13.6 °F 28% 30.14 in 10.0 mi Calm Calm - N/A   Clear
11:35 AM 47.3 °F - 10.6 °F 23% 30.13 in 10.0 mi NNE 3.5 mph - N/A   Clear
11:55 AM 49.8 °F - 12.4 °F 22% 30.12 in 10.0 mi Calm Calm - N/A   Clear
12:15 PM 51.8 °F - 9.1 °F 18% 30.11 in 10.0 mi Calm Calm - N/A   Clear
12:35 PM 54.0 °F - 3.7 °F 13% 30.09 in 10.0 mi ENE 3.5 mph - N/A   Clear
1:15 PM 57.4 °F - -4.9 °F 8% 30.06 in 10.0 mi Calm Calm - N/A   Clear
1:35 PM 59.7 °F - -5.6 °F 7% 30.04 in 10.0 mi Calm Calm - N/A   Clear
1:55 PM 60.1 °F - -0.9 °F 9% 30.03 in 10.0 mi NNE 3.5 mph - N/A   Clear
2:15 PM 61.0 °F - 7.0 °F 12% 30.03 in 10.0 mi NE 4.6 mph - N/A   Clear
2:35 PM 61.7 °F - 10.2 °F 13% 30.04 in 10.0 mi NE 4.6 mph - N/A   Clear
2:55 PM 61.7 °F - 9.3 °F 13% 30.04 in 10.0 mi NE 3.5 mph - N/A   Clear
3:15 PM 61.7 °F - 10.4 °F 13% 30.02 in 10.0 mi East 5.8 mph - N/A   Clear
3:35 PM 61.5 °F - 11.5 °F 14% 30.01 in 10.0 mi East 3.5 mph - N/A   Clear
3:55 PM 61.7 °F - 11.7 °F 14% 30.01 in 10.0 mi South 4.6 mph - N/A   Clear
4:15 PM 61.2 °F - 13.6 °F 16% 30.01 in 10.0 mi SSE 3.5 mph - N/A   Clear
4:35 PM 60.4 °F - 12.4 °F 15% 30.02 in 10.0 mi SSE 5.8 mph - N/A   Clear
4:55 PM 59.0 °F - 13.1 °F 16% 30.01 in 10.0 mi SSE 5.8 mph - N/A   Clear
5:15 PM 57.7 °F - 13.1 °F 17% 30.01 in 10.0 mi SSE 5.8 mph - N/A   Clear
5:35 PM 56.8 °F - 13.5 °F 18% 30.01 in 10.0 mi SE 4.6 mph - N/A   Clear
5:55 PM 56.3 °F - 13.5 °F 18% 30.00 in 10.0 mi East 4.6 mph - N/A   Clear
6:15 PM 55.8 °F - 14.0 °F 19% 30.00 in 10.0 mi SE 5.8 mph - N/A   Clear
6:35 PM 54.9 °F - 15.1 °F 21% 30.01 in 10.0 mi Calm Calm - N/A   Clear
6:55 PM 54.5 °F - 14.7 °F 21% 30.01 in 10.0 mi SSE 3.5 mph - N/A   Clear
7:15 PM 54.5 °F - 15.3 °F 21% 30.02 in 10.0 mi SSE 4.6 mph - N/A   Mostly Cloudy
7:35 PM 52.0 °F - 20.7 °F 29% 30.03 in 10.0 mi SSE 6.9 mph - N/A Rain Light Rain
7:55 PM 48.7 °F - 29.8 °F 48% 30.07 in 10.0 mi South 4.6 mph - N/A Rain Light Rain
8:15 PM 45.1 °F - 35.8 °F 70% 30.11 in 10.0 mi Calm Calm - N/A Rain Light Rain
8:35 PM 43.2 °F - 37.4 °F 80% 30.11 in 10.0 mi Calm Calm - 0.02 in Rain Rain
8:55 PM 44.2 °F 41.0 °F 32.5 °F 63% 30.10 in 10.0 mi East 5.8 mph - 0.03 in Rain Rain
9:15 PM 43.2 °F - 33.6 °F 69% 30.11 in 10.0 mi Calm Calm - 0.01 in Rain Light Rain
9:35 PM 41.7 °F - 35.8 °F 79% 30.10 in 5.0 mi Calm Calm - 0.04 in Rain Rain
9:55 PM 41.4 °F - 35.4 °F 79% 30.11 in 10.0 mi Calm Calm - 0.05 in Rain Light Rain
10:15 PM 40.5 °F 36.5 °F 37.4 °F 89% 30.14 in 5.0 mi WSW 5.8 mph - 0.03 in Rain Heavy Rain
10:35 PM 40.1 °F - 36.9 °F 88% 30.15 in 3.0 mi Calm Calm - 0.11 in Rain Light Rain
10:55 PM 39.6 °F - 37.0 °F 91% 30.17 in 2.0 mi Calm Calm - 0.20 in Rain Light Rain
11:15 PM 39.4 °F - 37.0 °F 91% 30.16 in 3.0 mi Calm Calm - 0.06 in Rain Rain
11:35 PM 39.4 °F - 37.0 °F 91% 30.17 in 4.0 mi Calm Calm - 0.11 in Rain Heavy Rain
11:55 PM 39.6 °F 35.4 °F 37.2 °F 91% 30.19 in 4.0 mi West 5.8 mph - 0.16 in Rain Rain